Time;durP1;ratioP1;P1;durP2;ratioP2;P2;SDS_P1;SDS_P2;PMS_P1;PMS_P2;Temp;Humidity;BMP_temperature;BMP_pressure;BME280_temperature;BME280_humidity;BME280_pressure;Samples;Min_cycle;Max_cycle;Signal;HPM_P1;HPM_P2
2022/05/15 00:01:59;;;;;;;15.00;4.15;;;15.30;61.10;;;;;;5030271;28;20092;-71
2022/05/15 00:04:25;;;;;;;12.43;3.88;;;15.30;60.90;;;;;;5029586;28;20021;-72
2022/05/15 00:06:51;;;;;;;12.95;3.38;;;15.30;60.80;;;;;;5021189;28;20026;-73
2022/05/15 00:09:16;;;;;;;15.15;4.55;;;15.30;60.40;;;;;;5035946;28;20510;-71
2022/05/15 00:11:43;;;;;;;13.65;4.10;;;15.30;60.40;;;;;;5041776;28;20520;-72
2022/05/15 00:14:08;;;;;;;11.55;4.00;;;15.30;60.40;;;;;;5048855;28;20017;-71
2022/05/15 00:16:34;;;;;;;10.27;3.67;;;15.30;60.30;;;;;;5046294;28;20031;-71
2022/05/15 00:19:00;;;;;;;14.25;4.05;;;15.30;60.40;;;;;;5049870;28;20024;-71
2022/05/15 00:21:26;;;;;;;15.82;3.90;;;15.30;60.30;;;;;;5044067;28;20041;-72
2022/05/15 00:23:52;;;;;;;11.70;3.85;;;15.30;60.10;;;;;;5049176;28;20096;-71
2022/05/15 00:26:18;;;;;;;14.35;4.03;;;15.30;60.20;;;;;;5045046;28;20111;-73
2022/05/15 00:28:43;;;;;;;13.68;3.92;;;15.30;60.20;;;;;;5048607;28;20025;-71
2022/05/15 00:31:10;;;;;;;16.83;4.97;;;15.30;60.10;;;;;;5040861;28;20021;-72
2022/05/15 00:33:36;;;;;;;12.95;4.15;;;15.30;60.40;;;;;;5049152;28;20037;-72
2022/05/15 00:36:03;;;;;;;13.68;3.90;;;15.30;60.40;;;;;;5037400;28;20036;-71
2022/05/15 00:38:29;;;;;;;14.43;4.20;;;15.30;60.40;;;;;;5046751;28;20487;-72
2022/05/15 00:40:55;;;;;;;13.10;3.97;;;15.30;60.40;;;;;;5044717;28;20039;-73
2022/05/15 00:43:44;;;;;;;15.27;3.97;;;15.30;60.30;;;;;;5038170;28;20025;-73
2022/05/15 00:46:14;;;;;;;12.10;3.60;;;15.20;60.40;;;;;;5041166;28;20017;-71
2022/05/15 00:48:40;;;;;;;12.13;3.80;;;15.20;60.30;;;;;;5041705;28;20040;-72
2022/05/15 00:51:36;;;;;;;11.82;2.88;;;15.20;60.30;;;;;;5040181;28;20014;-72
2022/05/15 00:54:13;;;;;;;11.32;3.55;;;15.20;60.60;;;;;;5041351;28;20132;-71
2022/05/15 00:56:45;;;;;;;13.45;3.95;;;15.20;60.80;;;;;;5044317;28;20033;-71
2022/05/15 00:59:14;;;;;;;12.07;3.50;;;15.10;61.20;;;;;;5042759;28;20028;-73
2022/05/15 01:01:40;;;;;;;10.35;2.88;;;15.10;61.20;;;;;;5038266;28;20862;-71
2022/05/15 01:04:06;;;;;;;11.57;3.40;;;15.10;61.40;;;;;;5037296;28;20047;-71
2022/05/15 01:06:32;;;;;;;12.50;3.38;;;15.10;60.70;;;;;;5036664;28;20060;-73
2022/05/15 01:09:01;;;;;;;10.50;3.92;;;15.10;61.00;;;;;;5044436;28;20049;-71
2022/05/15 01:11:27;;;;;;;14.05;4.20;;;15.00;61.10;;;;;;5043982;28;20024;-72
2022/05/15 01:13:53;;;;;;;12.65;4.25;;;15.00;61.30;;;;;;5043412;28;20103;-71
2022/05/15 01:16:22;;;;;;;9.43;2.90;;;15.00;61.10;;;;;;5035527;28;20029;-71
2022/05/15 01:18:48;;;;;;;12.20;3.95;;;15.10;60.90;;;;;;5043308;28;20033;-72
2022/05/15 01:21:23;;;;;;;13.63;3.78;;;15.00;61.00;;;;;;5042007;28;20025;-70
2022/05/15 01:23:50;;;;;;;9.35;3.20;;;15.00;61.00;;;;;;5042131;28;20022;-69
2022/05/15 01:26:16;;;;;;;15.23;4.18;;;15.00;60.80;;;;;;5041555;28;20053;-70
2022/05/15 01:28:45;;;;;;;15.20;3.85;;;15.00;60.80;;;;;;5042198;28;20021;-72
2022/05/15 01:31:12;;;;;;;15.73;4.28;;;14.90;60.90;;;;;;5038454;28;20021;-72
2022/05/15 01:33:38;;;;;;;12.95;4.15;;;14.80;61.20;;;;;;5044702;28;20501;-69
2022/05/15 01:36:04;;;;;;;12.27;3.83;;;14.80;61.10;;;;;;5047583;28;20112;-69
2022/05/15 01:38:30;;;;;;;11.68;3.35;;;14.80;61.10;;;;;;5044404;28;20017;-71
2022/05/15 01:40:55;;;;;;;11.98;3.92;;;14.80;61.10;;;;;;5060516;28;20041;-69
2022/05/15 01:43:21;;;;;;;13.38;3.65;;;14.80;61.00;;;;;;5046940;28;20029;-74
2022/05/15 01:45:46;;;;;;;11.25;3.25;;;14.80;61.20;;;;;;5043093;28;20044;-73
2022/05/15 01:48:12;;;;;;;12.10;3.60;;;14.70;61.10;;;;;;5044236;28;20491;-72
2022/05/15 01:50:38;;;;;;;13.60;4.07;;;14.70;61.40;;;;;;5041921;28;20029;-73
2022/05/15 01:53:04;;;;;;;7.63;3.25;;;14.70;61.50;;;;;;5040881;28;20044;-73
2022/05/15 01:55:29;;;;;;;11.98;3.75;;;14.70;61.30;;;;;;5044128;28;20096;-72
2022/05/15 01:57:55;;;;;;;13.27;4.15;;;14.70;61.50;;;;;;5043281;28;20475;-72
2022/05/15 02:00:23;;;;;;;14.88;4.10;;;14.60;61.70;;;;;;5042361;28;20052;-71
2022/05/15 02:02:49;;;;;;;11.60;3.75;;;14.60;61.80;;;;;;5035928;28;20025;-72
2022/05/15 02:05:15;;;;;;;11.23;3.38;;;14.60;61.90;;;;;;5042694;28;20365;-71
2022/05/15 02:07:41;;;;;;;10.50;3.50;;;14.60;62.00;;;;;;5040127;28;20065;-73
2022/05/15 02:10:09;;;;;;;13.50;4.03;;;14.60;62.10;;;;;;5037466;28;20067;-72
2022/05/15 02:12:35;;;;;;;11.18;3.60;;;14.60;62.40;;;;;;5038561;28;20025;-71
2022/05/15 02:15:02;;;;;;;12.32;3.83;;;14.60;62.60;;;;;;5047721;28;20036;-72
2022/05/15 02:17:28;;;;;;;13.50;3.60;;;14.50;62.40;;;;;;5046552;28;20399;-71
2022/05/15 02:19:53;;;;;;;11.98;3.67;;;14.50;62.50;;;;;;5047281;28;20087;-71
2022/05/15 02:22:19;;;;;;;9.80;3.35;;;14.50;62.60;;;;;;5049592;28;20032;-72
2022/05/15 02:24:48;;;;;;;13.70;3.90;;;14.50;62.80;;;;;;5049317;28;20025;-72
2022/05/15 02:27:13;;;;;;;10.93;3.50;;;14.40;63.00;;;;;;5049075;28;20045;-72
2022/05/15 02:29:39;;;;;;;12.57;3.63;;;14.40;63.20;;;;;;5045165;28;20562;-71
2022/05/15 02:32:05;;;;;;;12.88;3.30;;;14.40;63.60;;;;;;5046996;28;20032;-72
2022/05/15 02:34:30;;;;;;;12.55;3.80;;;14.40;63.40;;;;;;5049011;28;20100;-72
2022/05/15 02:36:56;;;;;;;10.77;3.38;;;14.40;63.60;;;;;;5050174;28;20121;-71
2022/05/15 02:39:22;;;;;;;12.60;3.92;;;14.40;63.50;;;;;;5054600;28;20116;-72
2022/05/15 02:41:47;;;;;;;15.55;3.95;;;14.40;63.60;;;;;;5052021;28;20037;-71
2022/05/15 02:44:13;;;;;;;14.88;4.28;;;14.40;63.90;;;;;;5047889;28;20104;-72
2022/05/15 02:46:38;;;;;;;12.77;3.88;;;14.30;64.20;;;;;;5046534;28;20395;-72
2022/05/15 02:51:48;;;;;;;13.13;4.38;;;14.30;64.10;;;;;;5048540;28;20122;-71
2022/05/15 02:54:14;;;;;;;12.48;3.97;;;14.30;64.30;;;;;;5041809;28;20186;-73
2022/05/15 02:56:40;;;;;;;13.88;3.75;;;14.30;64.50;;;;;;5045396;28;20083;-70
2022/05/15 02:59:07;;;;;;;11.60;3.47;;;14.30;64.50;;;;;;5045414;28;20060;-70
2022/05/15 03:01:34;;;;;;;11.77;3.63;;;14.30;64.50;;;;;;5045184;28;20029;-74
2022/05/15 03:03:59;;;;;;;10.32;3.28;;;14.30;64.60;;;;;;5045118;28;20016;-72
2022/05/15 03:06:25;;;;;;;11.35;3.95;;;14.30;64.50;;;;;;5047679;28;20082;-71
2022/05/15 03:08:52;;;;;;;12.77;3.35;;;14.30;64.90;;;;;;5047659;28;20039;-71
2022/05/15 03:11:18;;;;;;;15.75;3.88;;;14.20;65.00;;;;;;5043874;28;20035;-73
2022/05/15 03:13:44;;;;;;;13.10;3.80;;;14.20;65.30;;;;;;5044670;28;20480;-74
2022/05/15 03:16:11;;;;;;;11.77;3.70;;;14.20;65.40;;;;;;5040106;28;20044;-74
2022/05/15 03:18:43;;;;;;;14.23;3.88;;;14.20;65.40;;;;;;5049756;28;20395;-74
2022/05/15 03:21:10;;;;;;;11.75;3.75;;;14.20;65.50;;;;;;5044433;28;20032;-73
2022/05/15 03:23:36;;;;;;;14.88;4.00;;;14.20;65.50;;;;;;5049795;28;20031;-71
2022/05/15 03:26:02;;;;;;;11.25;3.42;;;14.20;65.60;;;;;;5043091;28;20480;-72
2022/05/15 03:28:28;;;;;;;9.05;3.33;;;14.20;65.70;;;;;;5035259;28;20484;-72
2022/05/15 03:30:53;;;;;;;10.32;3.45;;;14.20;65.60;;;;;;5042942;28;20108;-72
2022/05/15 03:33:19;;;;;;;12.13;3.90;;;14.20;65.80;;;;;;5050856;28;20055;-73
2022/05/15 03:35:44;;;;;;;11.02;3.38;;;14.20;65.80;;;;;;5047740;28;20021;-73
2022/05/15 03:38:10;;;;;;;12.98;3.80;;;14.10;65.70;;;;;;5049204;28;20491;-73
2022/05/15 03:40:36;;;;;;;10.15;3.50;;;14.10;65.90;;;;;;5045534;28;20040;-75
2022/05/15 03:43:02;;;;;;;11.90;4.05;;;14.10;65.90;;;;;;5041516;28;20032;-72
2022/05/15 03:45:29;;;;;;;15.77;4.40;;;14.10;66.20;;;;;;5047500;28;20017;-74
2022/05/15 03:47:55;;;;;;;12.10;3.63;;;14.10;66.40;;;;;;5052840;28;20024;-72
2022/05/15 03:50:24;;;;;;;11.35;3.45;;;14.00;66.40;;;;;;5047944;28;21353;-72
2022/05/15 03:52:50;;;;;;;10.90;3.90;;;14.00;66.30;;;;;;5050342;28;20113;-73
2022/05/15 03:55:16;;;;;;;13.52;3.90;;;14.00;66.40;;;;;;5046691;28;20057;-72
2022/05/15 03:57:42;;;;;;;14.05;4.13;;;14.00;66.40;;;;;;5044129;28;20029;-72
2022/05/15 04:00:10;;;;;;;10.32;3.35;;;14.00;66.80;;;;;;5046774;28;20037;-73
2022/05/15 04:02:38;;;;;;;11.15;3.80;;;13.90;66.70;;;;;;5050562;28;20081;-72
2022/05/15 04:05:04;;;;;;;12.70;4.18;;;14.00;66.70;;;;;;5042596;28;20085;-70
2022/05/15 04:07:30;;;;;;;15.68;4.07;;;13.90;67.00;;;;;;5045355;28;20087;-71
2022/05/15 04:09:55;;;;;;;14.73;3.80;;;13.90;67.20;;;;;;5039240;28;20021;-72
2022/05/15 04:12:22;;;;;;;13.55;4.30;;;13.90;67.40;;;;;;5041020;28;20530;-73
2022/05/15 04:14:48;;;;;;;12.88;3.83;;;13.80;67.50;;;;;;5042664;28;20036;-72
2022/05/15 04:17:13;;;;;;;14.55;3.97;;;13.80;67.40;;;;;;5040390;28;20040;-74
2022/05/15 04:19:39;;;;;;;11.07;4.50;;;13.80;67.50;;;;;;5048194;28;20132;-74
2022/05/15 04:22:05;;;;;;;11.45;3.92;;;13.90;67.50;;;;;;5034210;28;20028;-75
2022/05/15 04:24:33;;;;;;;11.70;3.50;;;14.00;67.30;;;;;;5050254;28;20078;-72
2022/05/15 04:26:59;;;;;;;11.90;4.07;;;14.00;67.00;;;;;;5044974;28;20073;-71
2022/05/15 04:29:25;;;;;;;13.43;4.03;;;14.00;67.10;;;;;;5044401;28;20032;-70
2022/05/15 04:31:55;;;;;;;13.02;3.58;;;14.00;67.30;;;;;;5046149;28;20536;-71
2022/05/15 04:34:22;;;;;;;12.48;3.83;;;13.90;67.20;;;;;;5045675;28;20044;-70
2022/05/15 04:36:48;;;;;;;14.30;4.28;;;14.00;67.30;;;;;;5040449;28;20040;-71
2022/05/15 04:39:14;;;;;;;12.68;3.55;;;14.00;67.40;;;;;;5039597;28;20028;-71
2022/05/15 04:41:39;;;;;;;13.57;4.38;;;14.00;67.30;;;;;;5036548;28;20029;-71
2022/05/15 04:44:05;;;;;;;14.80;4.63;;;14.00;67.30;;;;;;5050086;28;20119;-71
2022/05/15 04:46:30;;;;;;;12.57;4.00;;;14.00;67.50;;;;;;5046671;28;20415;-70
2022/05/15 04:48:57;;;;;;;12.23;3.42;;;14.00;67.50;;;;;;5034007;28;20017;-71
2022/05/15 04:51:23;;;;;;;15.65;4.75;;;14.00;67.40;;;;;;5042044;28;20059;-71
2022/05/15 04:53:48;;;;;;;12.32;3.90;;;14.10;67.50;;;;;;5047395;28;20056;-70
2022/05/15 04:56:14;;;;;;;11.20;4.05;;;14.10;67.40;;;;;;5046842;28;20372;-69
2022/05/15 04:58:39;;;;;;;12.45;4.07;;;14.10;67.40;;;;;;5049839;28;20032;-71
2022/05/15 05:01:05;;;;;;;12.77;3.72;;;14.10;67.40;;;;;;5033618;28;20520;-72
2022/05/15 05:03:30;;;;;;;12.75;4.15;;;14.20;67.30;;;;;;5042007;28;20036;-71
2022/05/15 05:05:56;;;;;;;10.73;3.65;;;14.20;67.10;;;;;;5045923;28;20021;-72
2022/05/15 05:08:21;;;;;;;11.13;3.83;;;14.40;67.10;;;;;;5047971;28;20021;-71
2022/05/15 05:10:47;;;;;;;12.73;3.90;;;14.80;66.10;;;;;;5044677;28;20036;-71
2022/05/15 05:13:13;;;;;;;14.25;4.65;;;14.90;65.20;;;;;;5040940;28;20567;-70
2022/05/15 05:15:38;;;;;;;10.45;4.00;;;14.90;65.20;;;;;;5037258;28;20509;-68
2022/05/15 05:18:04;;;;;;;10.50;3.75;;;15.30;64.80;;;;;;5055578;28;20117;-71
2022/05/15 05:20:30;;;;;;;11.80;4.05;;;15.90;63.20;;;;;;5041785;28;20087;-71
2022/05/15 05:22:55;;;;;;;10.65;3.80;;;16.50;61.40;;;;;;5042259;28;20025;-71
2022/05/15 05:25:21;;;;;;;9.40;3.03;;;17.10;59.60;;;;;;5023338;28;20034;-69
2022/05/15 05:27:47;;;;;;;13.32;3.75;;;17.60;58.20;;;;;;5049151;28;20424;-72
2022/05/15 05:30:17;;;;;;;10.50;3.67;;;18.20;56.90;;;;;;5041445;28;20028;-72
2022/05/15 05:32:43;;;;;;;8.52;2.90;;;18.90;55.50;;;;;;5042844;28;20021;-71
2022/05/15 05:35:10;;;;;;;7.35;3.03;;;19.50;54.00;;;;;;5048608;28;20113;-71
2022/05/15 05:37:36;;;;;;;16.60;4.28;;;19.90;52.90;;;;;;5042524;28;20112;-71
2022/05/15 05:40:02;;;;;;;10.10;3.22;;;20.20;51.60;;;;;;5048630;28;20100;-70
2022/05/15 05:42:28;;;;;;;14.52;4.63;;;20.20;51.40;;;;;;5041832;28;20398;-72
2022/05/15 05:44:54;;;;;;;10.82;3.72;;;20.40;50.40;;;;;;5043515;28;20124;-70
2022/05/15 05:47:27;;;;;;;8.48;2.50;;;20.60;50.10;;;;;;5038586;28;20098;-70
2022/05/15 05:49:53;;;;;;;12.10;3.35;;;21.00;50.00;;;;;;5043849;28;20029;-72
2022/05/15 05:52:19;;;;;;;9.07;3.20;;;21.20;49.10;;;;;;5045064;28;20671;-71
2022/05/15 05:54:45;;;;;;;10.25;3.42;;;21.30;48.60;;;;;;5040925;28;20095;-69
2022/05/15 05:57:10;;;;;;;8.27;3.10;;;21.50;48.30;;;;;;5038101;28;20064;-69
2022/05/15 05:59:36;;;;;;;10.38;3.55;;;21.50;48.10;;;;;;5045043;28;20439;-69
2022/05/15 06:02:02;;;;;;;10.20;3.47;;;21.90;47.60;;;;;;5037055;28;20518;-72
2022/05/15 06:04:40;;;;;;;9.45;3.28;;;21.90;46.90;;;;;;5040680;28;20048;-68
2022/05/15 06:07:06;;;;;;;12.07;3.90;;;22.00;46.80;;;;;;5039737;28;20230;-70
2022/05/15 06:09:32;;;;;;;12.13;3.83;;;22.00;46.80;;;;;;5042674;28;20400;-72
2022/05/15 06:11:58;;;;;;;10.05;3.25;;;22.00;46.30;;;;;;5043240;28;20032;-70
2022/05/15 06:14:23;;;;;;;13.25;3.97;;;21.90;46.70;;;;;;5038192;28;20033;-71
2022/05/15 06:16:49;;;;;;;10.68;3.88;;;22.40;46.00;;;;;;5035361;28;20051;-69
2022/05/15 06:19:14;;;;;;;7.10;3.20;;;22.30;45.90;;;;;;5039911;28;20160;-70
2022/05/15 06:21:40;;;;;;;9.00;2.75;;;22.50;46.00;;;;;;5039095;28;20028;-71
2022/05/15 06:24:06;;;;;;;9.68;3.15;;;22.80;45.70;;;;;;5042857;28;20017;-70
2022/05/15 06:26:32;;;;;;;11.48;3.65;;;23.20;45.20;;;;;;5040567;28;20033;-69
2022/05/15 06:28:57;;;;;;;11.10;3.80;;;23.00;45.00;;;;;;5042039;28;20049;-74
2022/05/15 06:31:23;;;;;;;10.57;3.70;;;22.50;45.50;;;;;;5038468;28;20017;-68
2022/05/15 06:33:48;;;;;;;8.63;3.25;;;22.00;46.80;;;;;;5043346;28;20438;-69
2022/05/15 06:36:15;;;;;;;8.32;3.33;;;21.60;48.00;;;;;;5038835;28;20373;-67
2022/05/15 06:38:42;;;;;;;9.63;3.13;;;21.40;48.70;;;;;;5035903;28;20044;-68
2022/05/15 06:41:17;;;;;;;9.20;3.60;;;21.50;48.90;;;;;;5037462;28;20021;-68
2022/05/15 06:43:46;;;;;;;10.80;3.38;;;21.10;49.30;;;;;;5037712;28;20121;-68
2022/05/15 06:46:11;;;;;;;9.43;3.10;;;21.00;49.80;;;;;;5038741;28;20025;-68
2022/05/15 06:48:38;;;;;;;10.98;3.70;;;20.90;50.00;;;;;;5040324;28;20017;-68
2022/05/15 06:51:05;;;;;;;10.60;3.90;;;20.70;50.00;;;;;;5040069;28;20164;-68
2022/05/15 06:53:31;;;;;;;9.52;3.83;;;20.40;50.20;;;;;;5035163;28;20029;-67
2022/05/15 06:58:41;;;;;;;10.05;3.60;;;20.00;51.30;;;;;;5038506;28;20044;-69
2022/05/15 07:01:07;;;;;;;10.52;3.47;;;19.90;51.50;;;;;;5037844;28;20029;-68
2022/05/15 07:03:33;;;;;;;9.15;3.60;;;20.10;51.80;;;;;;5041392;28;20063;-67
2022/05/15 07:05:58;;;;;;;7.75;3.00;;;20.40;51.30;;;;;;5043262;28;20028;-67
2022/05/15 07:08:24;;;;;;;7.97;3.22;;;20.80;50.80;;;;;;5038855;28;20407;-68
2022/05/15 07:10:50;;;;;;;9.02;3.38;;;21.00;50.40;;;;;;5039493;28;20034;-67
2022/05/15 07:13:15;;;;;;;10.02;3.65;;;21.00;50.00;;;;;;5032038;28;20038;-68
2022/05/15 07:15:41;;;;;;;9.20;3.63;;;21.00;49.80;;;;;;5042219;28;20538;-68
2022/05/15 07:18:07;;;;;;;10.32;3.75;;;20.90;49.90;;;;;;5040656;28;20025;-69
2022/05/15 07:20:34;;;;;;;10.65;3.70;;;21.00;49.80;;;;;;5043463;28;20356;-67
2022/05/15 07:22:59;;;;;;;10.90;3.88;;;21.00;49.80;;;;;;5039186;28;20036;-67
2022/05/15 07:25:25;;;;;;;8.48;3.67;;;20.80;49.40;;;;;;5040557;28;20028;-68
2022/05/15 07:27:51;;;;;;;8.70;3.63;;;20.70;49.80;;;;;;5039841;28;20025;-68
2022/05/15 07:30:16;;;;;;;10.50;3.70;;;20.70;49.80;;;;;;5038405;28;20033;-68
2022/05/15 07:32:42;;;;;;;10.20;4.13;;;20.60;50.00;;;;;;5043057;28;20025;-68
2022/05/15 07:35:09;;;;;;;9.43;3.47;;;20.50;50.30;;;;;;5037478;28;20041;-67
2022/05/15 07:37:35;;;;;;;6.82;3.20;;;20.60;50.40;;;;;;5040288;28;20111;-67
2022/05/15 07:40:00;;;;;;;10.30;3.95;;;20.90;51.00;;;;;;5039020;28;20032;-67
2022/05/15 07:42:26;;;;;;;8.30;3.38;;;21.10;49.80;;;;;;5039863;28;20021;-67
2022/05/15 07:44:54;;;;;;;10.35;3.72;;;21.20;49.80;;;;;;5037520;28;20471;-67
2022/05/15 07:47:20;;;;;;;11.18;3.53;;;21.40;49.40;;;;;;5041624;28;20547;-67
2022/05/15 07:49:45;;;;;;;7.38;3.40;;;21.60;49.10;;;;;;5040719;28;20095;-66
2022/05/15 07:52:11;;;;;;;8.52;3.35;;;21.70;48.90;;;;;;5035548;28;20144;-68
2022/05/15 07:54:37;;;;;;;7.32;3.15;;;21.90;48.80;;;;;;5039006;28;20052;-67
2022/05/15 07:57:03;;;;;;;7.10;3.38;;;22.00;48.60;;;;;;5039835;28;20029;-68
2022/05/15 07:59:29;;;;;;;8.63;3.42;;;22.10;48.50;;;;;;5043136;28;20033;-67
2022/05/15 08:01:55;;;;;;;8.13;3.47;;;22.20;48.40;;;;;;5040346;28;20052;-67
2022/05/15 08:04:22;;;;;;;8.10;3.75;;;22.30;48.20;;;;;;5037187;28;20022;-68
2022/05/15 08:09:32;;;;;;;7.55;3.60;;;22.50;47.90;;;;;;5040719;28;20043;-67
2022/05/15 08:11:57;;;;;;;7.10;3.40;;;22.60;47.70;;;;;;5035305;28;20029;-67
2022/05/15 08:14:23;;;;;;;8.68;3.80;;;22.80;47.50;;;;;;5034264;28;20519;-68
2022/05/15 08:16:48;;;;;;;9.35;3.40;;;22.80;47.10;;;;;;5044596;28;20487;-67
2022/05/15 08:24:43;;;;;;;7.88;3.38;;;22.80;46.70;;;;;;5041684;28;20032;-67
2022/05/15 08:27:12;;;;;;;8.93;3.17;;;23.00;46.50;;;;;;5044771;28;21377;-66
2022/05/15 08:29:40;;;;;;;7.20;3.25;;;23.20;46.20;;;;;;5040487;28;20022;-67
2022/05/15 08:32:07;;;;;;;5.93;2.95;;;23.40;45.70;;;;;;5037457;28;20021;-67
2022/05/15 08:34:33;;;;;;;11.80;3.88;;;23.50;45.60;;;;;;5037221;28;20032;-67
2022/05/15 08:37:00;;;;;;;8.48;3.22;;;23.50;45.10;;;;;;5039758;28;20120;-68
2022/05/15 08:39:27;;;;;;;6.50;2.90;;;23.30;45.50;;;;;;5044240;28;20024;-67
2022/05/15 08:42:18;;;;;;;7.07;3.20;;;23.40;45.60;;;;;;5042864;28;20033;-67
2022/05/15 08:44:46;;;;;;;6.57;3.13;;;23.50;45.40;;;;;;5038550;28;20113;-67
2022/05/15 08:47:19;;;;;;;6.80;3.47;;;23.70;45.30;;;;;;5042233;28;20016;-68
2022/05/15 08:49:52;;;;;;;8.88;3.40;;;23.60;44.80;;;;;;5044593;28;20457;-68
2022/05/15 08:52:57;;;;;;;6.72;2.72;;;23.50;44.90;;;;;;5040469;28;20400;-67
2022/05/15 08:55:42;;;;;;;8.18;3.38;;;23.60;44.80;;;;;;5035639;28;20069;-68
2022/05/15 08:58:09;;;;;;;7.97;3.58;;;23.50;44.70;;;;;;5037962;28;20027;-67
2022/05/15 09:00:44;;;;;;;7.28;3.33;;;23.20;45.00;;;;;;5033177;28;20036;-67
2022/05/15 09:03:28;;;;;;;9.40;3.40;;;23.30;45.20;;;;;;5038092;28;20068;-67
2022/05/15 09:06:36;;;;;;;8.07;3.70;;;23.40;44.90;;;;;;5044243;28;20017;-67
2022/05/15 09:09:35;;;;;;;9.20;3.47;;;23.50;44.90;;;;;;5032796;28;20051;-67
2022/05/15 09:12:17;;;;;;;10.02;3.40;;;23.40;44.80;;;;;;5045190;28;20039;-67
2022/05/15 09:15:05;;;;;;;7.88;3.03;;;23.40;43.90;;;;;;5038174;28;20099;-67
2022/05/15 09:17:46;;;;;;;10.32;3.97;;;23.50;44.30;;;;;;5037738;28;20034;-67
2022/05/15 09:20:41;;;;;;;9.57;4.40;;;23.60;44.00;;;;;;5040002;28;20436;-67
2022/05/15 09:23:22;;;;;;;8.60;3.95;;;23.60;43.90;;;;;;5037685;28;21604;-67
2022/05/15 09:26:00;;;;;;;7.88;4.13;;;23.80;43.90;;;;;;5040941;28;20025;-67
2022/05/15 09:28:27;;;;;;;8.32;3.08;;;23.80;43.50;;;;;;5045590;28;20356;-67
2022/05/15 09:30:56;;;;;;;9.95;3.10;;;23.80;43.60;;;;;;5043888;28;20072;-68
2022/05/15 09:33:28;;;;;;;9.10;3.42;;;23.90;43.40;;;;;;5046516;28;20048;-67
2022/05/15 09:36:29;;;;;;;8.13;2.47;;;23.90;43.10;;;;;;5039205;28;20021;-67
2022/05/15 09:39:22;;;;;;;5.72;2.53;;;24.00;43.40;;;;;;5042012;28;20108;-68
2022/05/15 09:45:07;;;;;;;9.60;3.30;;;24.20;40.60;;;;;;5046085;28;20045;-68
2022/05/15 09:47:38;;;;;;;6.93;2.40;;;24.00;39.90;;;;;;5046208;28;20025;-67
2022/05/15 09:50:06;;;;;;;6.47;2.45;;;23.90;39.70;;;;;;5045455;28;20425;-68
2022/05/15 09:52:38;;;;;;;8.80;3.10;;;24.10;40.00;;;;;;5046618;28;20033;-68
2022/05/15 09:55:20;;;;;;;8.18;2.92;;;24.10;39.30;;;;;;5052016;28;20020;-68
2022/05/15 09:58:15;;;;;;;8.85;3.05;;;24.00;39.70;;;;;;5046740;28;20059;-68
2022/05/15 10:00:40;;;;;;;6.72;2.55;;;23.80;39.40;;;;;;5046560;28;20460;-68
2022/05/15 10:03:22;;;;;;;10.50;2.50;;;23.70;39.20;;;;;;5043856;28;20021;-67
2022/05/15 10:05:59;;;;;;;7.68;2.10;;;23.80;38.70;;;;;;5047609;28;20091;-67
2022/05/15 10:08:26;;;;;;;6.47;2.47;;;24.00;38.80;;;;;;5048932;28;20053;-68
2022/05/15 10:11:02;;;;;;;11.02;3.97;;;24.30;39.40;;;;;;5046187;28;20546;-68
2022/05/15 10:13:52;;;;;;;8.15;2.90;;;24.40;39.80;;;;;;5044383;28;20060;-66
2022/05/15 10:16:23;;;;;;;5.63;2.72;;;24.30;40.40;;;;;;5043814;28;20059;-66
2022/05/15 10:18:53;;;;;;;6.72;3.20;;;24.30;40.90;;;;;;5040109;28;20104;-67
2022/05/15 10:21:21;;;;;;;7.00;2.90;;;24.40;40.80;;;;;;5045968;28;20184;-66
2022/05/15 10:23:56;;;;;;;10.35;3.65;;;24.40;41.00;;;;;;5050334;28;20044;-67
2022/05/15 10:26:38;;;;;;;9.73;2.95;;;24.50;41.00;;;;;;5045133;28;20100;-66
2022/05/15 10:29:27;;;;;;;9.88;3.55;;;24.40;40.50;;;;;;5043002;28;20100;-66
2022/05/15 10:31:58;;;;;;;7.30;2.95;;;24.30;40.50;;;;;;5044674;28;20037;-67
2022/05/15 10:34:29;;;;;;;7.93;2.92;;;24.40;40.20;;;;;;5043621;28;20041;-67
2022/05/15 10:37:13;;;;;;;8.65;3.15;;;24.40;40.30;;;;;;5045670;28;20025;-67
2022/05/15 10:40:03;;;;;;;13.02;4.40;;;24.50;39.50;;;;;;5047937;28;20114;-67
2022/05/15 10:42:49;;;;;;;9.75;3.25;;;24.30;39.00;;;;;;5042188;28;20037;-67
2022/05/15 10:45:39;;;;;;;9.30;3.03;;;24.20;39.50;;;;;;5046694;28;20021;-66
2022/05/15 10:48:22;;;;;;;7.43;2.92;;;24.20;38.30;;;;;;5037254;28;20483;-67
2022/05/15 10:51:31;;;;;;;5.65;2.13;;;24.10;38.00;;;;;;5047231;28;20068;-67
2022/05/15 10:57:24;;;;;;;7.43;2.60;;;24.30;37.00;;;;;;5042480;28;20040;-67
2022/05/15 10:59:53;;;;;;;8.13;3.10;;;24.30;36.90;;;;;;5045668;28;20087;-66
2022/05/15 11:02:40;;;;;;;7.22;2.85;;;24.40;37.20;;;;;;5043712;28;20026;-66
2022/05/15 11:05:22;;;;;;;7.60;2.83;;;24.50;37.40;;;;;;5044968;28;20082;-67
2022/05/15 11:07:52;;;;;;;;;;;24.40;36.70;;;;;;5040504;28;20013;-66
2022/05/15 11:10:31;;;;;;;8.30;3.05;;;24.40;37.90;;;;;;5036340;28;19913;-66
2022/05/15 11:13:02;;;;;;;5.50;2.40;;;24.50;36.60;;;;;;5041269;28;20106;-66
2022/05/15 11:15:35;;;;;;;9.13;2.45;;;24.40;37.00;;;;;;5049192;28;20131;-66
2022/05/15 11:18:03;;;;;;;5.72;2.08;;;24.50;37.30;;;;;;5046372;28;20056;-66
2022/05/15 11:20:41;;;;;;;5.95;2.45;;;24.80;37.20;;;;;;5048301;28;20033;-67
2022/05/15 11:23:27;;;;;;;6.50;2.05;;;24.90;35.90;;;;;;5042910;28;20120;-67
2022/05/15 11:26:07;;;;;;;7.80;2.40;;;25.00;36.20;;;;;;5043312;28;20481;-66
2022/05/15 11:28:42;;;;;;;6.07;2.10;;;25.00;36.40;;;;;;5044262;28;20078;-66
2022/05/15 11:31:13;;;;;;;8.15;2.67;;;25.30;36.60;;;;;;5037946;28;20017;-66
2022/05/15 11:33:55;;;;;;;8.85;2.75;;;25.30;35.80;;;;;;5038554;28;20538;-65
2022/05/15 11:36:21;;;;;;;8.63;2.72;;;25.20;35.70;;;;;;5039599;28;20044;-65
2022/05/15 11:39:13;;;;;;;9.48;2.53;;;25.00;35.50;;;;;;5038316;28;20029;-66
2022/05/15 11:42:08;;;;;;;5.85;2.17;;;24.90;35.90;;;;;;5037370;28;20533;-66
2022/05/15 11:44:41;;;;;;;6.00;2.33;;;25.00;36.00;;;;;;5039556;28;20060;-65
2022/05/15 11:47:26;;;;;;;6.55;2.30;;;25.10;35.50;;;;;;5039258;28;20098;-66
2022/05/15 11:50:03;;;;;;;6.18;2.67;;;25.30;35.90;;;;;;5039441;28;20037;-66
2022/05/15 11:52:36;;;;;;;7.18;2.60;;;25.50;35.50;;;;;;5037258;28;20575;-65
2022/05/15 11:55:36;;;;;;;4.68;1.85;;;25.70;35.60;;;;;;5038593;28;20031;-66
2022/05/15 11:58:30;;;;;;;4.90;1.80;;;25.80;35.50;;;;;;5036623;28;20033;-65
2022/05/15 12:00:59;;;;;;;7.18;2.67;;;26.20;34.90;;;;;;5038422;28;20029;-65
2022/05/15 12:03:40;;;;;;;6.72;2.13;;;25.90;34.20;;;;;;5038203;28;20060;-67
2022/05/15 12:06:11;;;;;;;7.53;2.37;;;25.90;34.70;;;;;;5038491;28;20022;-66
2022/05/15 12:08:38;;;;;;;;;;;25.80;34.30;;;;;;5036224;28;20132;-66
2022/05/15 12:11:28;;;;;;;6.47;1.98;;;25.80;34.20;;;;;;5038999;28;19908;-66
2022/05/15 12:13:54;;;;;;;5.72;2.22;;;25.80;34.40;;;;;;5043432;28;20103;-66
2022/05/15 12:16:32;;;;;;;7.68;2.50;;;26.10;34.30;;;;;;5043957;28;20053;-65
2022/05/15 12:19:16;;;;;;;4.90;1.98;;;26.00;33.60;;;;;;5037578;28;20530;-65
2022/05/15 12:21:46;;;;;;;6.25;2.00;;;26.10;34.20;;;;;;5037907;28;20135;-66
2022/05/15 12:24:27;;;;;;;7.60;2.20;;;26.30;33.80;;;;;;5040622;28;20018;-66
2022/05/15 12:27:08;;;;;;;4.28;1.83;;;26.40;33.10;;;;;;5039759;28;20043;-65
2022/05/15 12:30:12;;;;;;;7.85;1.90;;;26.50;33.20;;;;;;5039284;28;20392;-65
2022/05/15 12:32:44;;;;;;;7.10;1.75;;;26.80;33.00;;;;;;5038197;28;20599;-66
2022/05/15 12:35:31;;;;;;;5.20;2.10;;;27.10;32.70;;;;;;5039595;28;20021;-66
2022/05/15 12:38:21;;;;;;;6.60;2.22;;;27.10;32.20;;;;;;5036902;28;20537;-67
2022/05/15 12:41:01;;;;;;;13.80;3.00;;;26.80;31.30;;;;;;5046420;28;20487;-65
2022/05/15 12:43:31;;;;;;;6.05;2.13;;;26.60;31.10;;;;;;5044069;28;20025;-66
2022/05/15 12:45:57;;;;;;;5.60;2.00;;;26.50;31.10;;;;;;5047609;28;20083;-65
2022/05/15 12:48:24;;;;;;;4.28;1.42;;;26.40;31.20;;;;;;5044110;28;20488;-65
2022/05/15 12:51:03;;;;;;;5.78;2.28;;;26.70;31.50;;;;;;5047042;28;20024;-66
2022/05/15 12:53:43;;;;;;;4.93;2.33;;;27.10;31.50;;;;;;5041718;28;20025;-66
2022/05/15 12:56:25;;;;;;;4.20;1.90;;;27.10;30.80;;;;;;5040810;28;20029;-65
2022/05/15 12:58:54;;;;;;;6.15;2.15;;;27.30;31.00;;;;;;5037840;28;20033;-65
2022/05/15 13:01:23;;;;;;;4.25;1.65;;;27.10;30.20;;;;;;5039166;28;20487;-66
2022/05/15 13:03:53;;;;;;;6.03;2.35;;;27.20;30.40;;;;;;5034712;28;20025;-66
2022/05/15 13:06:20;;;;;;;7.35;2.33;;;27.40;30.30;;;;;;5035532;28;20041;-66
2022/05/15 13:08:49;;;;;;;6.45;2.20;;;27.30;29.70;;;;;;5046725;28;20029;-66
2022/05/15 13:11:20;;;;;;;5.32;2.00;;;27.40;29.60;;;;;;5047890;28;20028;-66
2022/05/15 13:13:46;;;;;;;7.10;1.85;;;27.20;29.70;;;;;;5036361;28;20469;-66
2022/05/15 13:16:19;;;;;;;4.97;1.65;;;27.20;29.70;;;;;;5038024;28;20025;-66
2022/05/15 13:18:47;;;;;;;5.38;1.73;;;27.20;29.50;;;;;;5037504;28;20100;-65
2022/05/15 13:21:19;;;;;;;6.10;1.67;;;27.20;29.20;;;;;;5049584;28;20017;-66